createdAt,value
2022-11-18T00:01:22.834Z,4.10
2022-11-18T00:03:50.652Z,4.10
2022-11-18T00:06:23.704Z,4.10
2022-11-18T00:08:52.859Z,4.10
2022-11-18T00:11:43.739Z,4.10
2022-11-18T00:14:20.477Z,4.10
2022-11-18T00:17:03.193Z,4.10
2022-11-18T00:19:35.818Z,4.10
2022-11-18T00:22:06.926Z,4.20
2022-11-18T00:24:37.118Z,4.20
2022-11-18T00:27:04.978Z,4.10
2022-11-18T00:29:33.522Z,4.20
2022-11-18T00:32:01.874Z,4.20
2022-11-18T00:34:28.761Z,4.20
2022-11-18T00:36:56.367Z,4.20
2022-11-18T00:39:24.143Z,4.30
2022-11-18T00:42:12.387Z,4.20
2022-11-18T00:44:41.821Z,4.20
2022-11-18T00:47:09.429Z,4.20
2022-11-18T00:49:37.045Z,4.20
2022-11-18T00:52:05.568Z,4.20
2022-11-18T00:54:32.513Z,4.20
2022-11-18T00:57:00.413Z,4.20
2022-11-18T00:59:28.027Z,4.20
2022-11-18T01:01:55.703Z,4.20
2022-11-18T01:04:23.647Z,4.30
2022-11-18T01:06:52.941Z,4.30
2022-11-18T01:09:20.070Z,4.30
2022-11-18T01:12:05.760Z,4.30
2022-11-18T01:14:33.485Z,4.30
2022-11-18T01:17:01.099Z,4.20
2022-11-18T01:19:30.109Z,4.20
2022-11-18T01:22:02.961Z,4.20
2022-11-18T01:24:32.186Z,4.20
2022-11-18T01:27:01.896Z,4.20
2022-11-18T01:29:29.755Z,4.20
2022-11-18T01:32:22.709Z,4.20
2022-11-18T01:34:44.202Z,4.20
2022-11-18T01:37:11.814Z,4.20
2022-11-18T01:39:39.404Z,4.20
2022-11-18T01:42:15.935Z,4.20
2022-11-18T01:45:10.130Z,4.20
2022-11-18T01:47:53.221Z,4.20
2022-11-18T01:50:23.469Z,4.10
2022-11-18T01:52:56.427Z,4.10
2022-11-18T01:55:27.093Z,4.20
2022-11-18T01:58:03.369Z,4.10
2022-11-18T02:00:31.849Z,4.20
2022-11-18T02:03:01.915Z,4.20
2022-11-18T02:05:30.502Z,4.20
2022-11-18T02:08:00.288Z,4.20
2022-11-18T02:10:28.944Z,4.20
2022-11-18T02:12:58.932Z,4.10
2022-11-18T02:15:47.176Z,4.10
2022-11-18T02:18:30.996Z,4.10
2022-11-18T02:21:38.921Z,4.10
2022-11-18T02:24:14.604Z,4.10
2022-11-18T02:27:03.861Z,4.10
2022-11-18T02:29:44.029Z,4.10
2022-11-18T02:32:19.366Z,4.20
2022-11-18T02:34:51.699Z,4.20
2022-11-18T02:37:31.054Z,4.20
2022-11-18T02:40:20.999Z,4.20
2022-11-18T02:42:55.811Z,4.20
2022-11-18T02:45:27.711Z,4.20
2022-11-18T02:47:58.472Z,4.20
2022-11-18T02:50:29.928Z,4.20
2022-11-18T02:53:01.431Z,4.20
2022-11-18T02:55:32.590Z,4.20
2022-11-18T02:58:01.349Z,4.20
2022-11-18T03:00:28.933Z,4.20
2022-11-18T03:02:56.635Z,4.20
2022-11-18T03:05:46.707Z,4.20
2022-11-18T03:08:20.833Z,4.20
2022-11-18T03:11:05.961Z,4.20
2022-11-18T03:13:49.782Z,4.20
2022-11-18T03:16:32.644Z,4.30
2022-11-18T03:19:44.416Z,4.30
2022-11-18T03:22:37.429Z,4.30
2022-11-18T03:25:34.874Z,4.30
2022-11-18T03:28:17.018Z,4.30
2022-11-18T03:30:54.611Z,4.30
2022-11-18T03:33:30.065Z,4.30
2022-11-18T03:35:58.931Z,4.30
2022-11-18T03:38:31.669Z,4.30
2022-11-18T03:41:04.376Z,4.40
2022-11-18T03:43:41.527Z,4.40
2022-11-18T03:46:21.852Z,4.30
2022-11-18T03:48:56.517Z,4.30
2022-11-18T03:51:30.158Z,4.40
2022-11-18T03:54:07.634Z,4.30
2022-11-18T03:56:39.802Z,4.30
2022-11-18T03:59:20.946Z,4.30
2022-11-18T04:01:54.473Z,4.30
2022-11-18T04:04:25.042Z,4.30
2022-11-18T04:07:19.215Z,4.30
2022-11-18T04:09:59.051Z,4.30
2022-11-18T04:12:33.015Z,4.30
2022-11-18T04:15:00.670Z,4.30
2022-11-18T04:17:29.293Z,4.30
2022-11-18T04:19:56.598Z,4.30
2022-11-18T04:22:24.194Z,4.30
2022-11-18T04:24:51.772Z,4.30
2022-11-18T04:29:07.973Z,4.20
2022-11-18T04:31:36.313Z,4.20
2022-11-18T04:34:04.596Z,4.20
2022-11-18T04:36:32.196Z,4.20
2022-11-18T04:38:59.938Z,4.20
2022-11-18T04:41:48.247Z,4.10
2022-11-18T04:44:18.121Z,4.10
2022-11-18T04:46:46.596Z,4.10
2022-11-18T04:49:15.609Z,4.10
2022-11-18T04:51:46.975Z,4.10
2022-11-18T04:54:16.425Z,4.10
2022-11-18T04:56:49.055Z,4.10
2022-11-18T04:59:21.053Z,4.00
2022-11-18T05:01:51.583Z,4.10
2022-11-18T05:04:22.936Z,4.00
2022-11-18T05:06:51.601Z,4.00
2022-11-18T05:09:20.775Z,4.00
2022-11-18T05:12:09.341Z,4.10
2022-11-18T05:14:39.861Z,4.10
2022-11-18T05:17:09.148Z,4.10
2022-11-18T05:19:39.411Z,4.10
2022-11-18T05:22:08.293Z,4.10
2022-11-18T05:24:36.027Z,4.00
2022-11-18T05:27:04.426Z,4.10
2022-11-18T05:29:33.763Z,4.10
2022-11-18T05:32:00.693Z,4.00
2022-11-18T05:34:31.143Z,4.10
2022-11-18T05:36:58.706Z,4.10
2022-11-18T05:39:26.298Z,4.10
2022-11-18T05:42:13.079Z,4.00
2022-11-18T05:44:41.353Z,4.10
2022-11-18T05:47:10.688Z,4.00
2022-11-18T05:49:40.461Z,4.00
2022-11-18T05:52:08.847Z,4.00
2022-11-18T05:54:42.231Z,4.00
2022-11-18T05:57:10.529Z,3.90
2022-11-18T05:59:39.576Z,3.90
2022-11-18T06:02:21.956Z,3.80
2022-11-18T06:04:59.827Z,3.80
2022-11-18T06:07:47.725Z,3.70
2022-11-18T06:10:21.150Z,3.70
2022-11-18T06:12:52.816Z,3.70
2022-11-18T06:15:26.908Z,3.60
2022-11-18T06:18:27.330Z,3.60
2022-11-18T06:20:59.958Z,3.60
2022-11-18T06:23:29.593Z,3.60
2022-11-18T06:25:57.214Z,3.50
2022-11-18T06:28:27.930Z,3.50
2022-11-18T06:30:55.582Z,3.50
2022-11-18T06:33:24.058Z,3.50
2022-11-18T06:35:50.923Z,3.50
2022-11-18T06:38:17.772Z,3.50
2022-11-18T06:40:45.565Z,3.50
2022-11-18T06:43:32.361Z,3.50
2022-11-18T06:46:21.455Z,3.40
2022-11-18T06:48:49.986Z,3.40
2022-11-18T06:51:17.164Z,3.40
2022-11-18T06:53:45.027Z,3.30
2022-11-18T06:56:14.822Z,3.30
2022-11-18T06:58:43.859Z,3.30
2022-11-18T07:01:14.844Z,3.20
2022-11-18T07:03:43.851Z,3.20
2022-11-18T07:06:13.242Z,3.20
2022-11-18T07:08:42.439Z,3.20
2022-11-18T07:11:12.337Z,3.30
2022-11-18T07:13:43.788Z,3.30
2022-11-18T07:16:26.515Z,3.30
2022-11-18T07:18:55.134Z,3.40
2022-11-18T07:21:26.102Z,3.30
2022-11-18T07:23:55.569Z,3.40
2022-11-18T07:26:25.271Z,3.40
2022-11-18T07:28:54.345Z,3.40
2022-11-18T07:31:22.025Z,3.40
2022-11-18T07:33:50.219Z,3.40
2022-11-18T07:36:19.590Z,3.40
2022-11-18T07:38:48.331Z,3.40
2022-11-18T07:41:28.263Z,3.40
2022-11-18T07:44:00.797Z,3.40
2022-11-18T07:46:35.808Z,3.40
2022-11-18T07:49:12.095Z,3.50
2022-11-18T07:51:41.889Z,3.50
2022-11-18T07:54:12.923Z,3.50
2022-11-18T07:56:41.327Z,3.60
2022-11-18T07:59:10.423Z,3.60
2022-11-18T08:01:38.781Z,3.60
2022-11-18T08:04:07.826Z,3.60
2022-11-18T08:06:36.782Z,3.60
2022-11-18T08:09:06.879Z,3.70
2022-11-18T08:11:36.568Z,3.70
2022-11-18T08:14:04.902Z,3.70
2022-11-18T08:16:33.220Z,3.70
2022-11-18T08:19:03.770Z,3.70
2022-11-18T08:21:31.438Z,3.80
2022-11-18T08:23:59.716Z,3.80
2022-11-18T08:26:27.882Z,3.80
2022-11-18T08:28:58.146Z,3.80
2022-11-18T08:31:28.511Z,3.80
2022-11-18T08:34:03.514Z,3.90
2022-11-18T08:36:34.829Z,3.90
2022-11-18T08:39:03.886Z,4.00
2022-11-18T08:41:34.066Z,4.00
2022-11-18T08:44:03.669Z,4.00
2022-11-18T08:46:31.941Z,4.00
2022-11-18T08:49:00.377Z,4.00
2022-11-18T08:51:29.186Z,4.00
2022-11-18T08:53:57.741Z,4.00
2022-11-18T08:56:26.736Z,4.10
2022-11-18T08:58:55.953Z,4.10
2022-11-18T09:01:24.629Z,4.10
2022-11-18T09:03:54.040Z,4.10
2022-11-18T09:06:24.843Z,4.10
2022-11-18T09:08:54.151Z,4.20
2022-11-18T09:11:25.302Z,4.20
2022-11-18T09:14:39.072Z,4.20
2022-11-18T09:16:41.860Z,4.20
2022-11-18T09:19:39.613Z,4.20
2022-11-18T09:21:56.260Z,4.30
2022-11-18T09:24:23.860Z,4.20
2022-11-18T09:26:53.710Z,4.30
2022-11-18T09:29:26.221Z,4.30
2022-11-18T09:31:55.632Z,4.30
2022-11-18T09:34:24.009Z,4.30
2022-11-18T09:36:51.408Z,4.40
2022-11-18T09:39:19.331Z,4.40
2022-11-18T09:41:48.755Z,4.40
2022-11-18T09:44:49.458Z,4.40
2022-11-18T09:47:33.766Z,4.40
2022-11-18T09:53:18.243Z,4.30
2022-11-18T09:55:45.611Z,4.30
2022-11-18T09:58:33.987Z,4.30
2022-11-18T10:01:02.645Z,4.30
2022-11-18T10:03:31.773Z,4.30
2022-11-18T10:06:11.941Z,4.30
2022-11-18T10:08:43.282Z,4.30
2022-11-18T10:11:42.086Z,4.30
2022-11-18T10:14:37.370Z,4.30
2022-11-18T10:17:31.433Z,4.30
2022-11-18T10:20:18.555Z,4.40
2022-11-18T10:22:52.781Z,4.40
2022-11-18T10:25:21.248Z,4.50
2022-11-18T10:27:51.118Z,4.60
2022-11-18T10:30:26.299Z,4.60
2022-11-18T10:33:04.211Z,4.70
2022-11-18T10:35:38.654Z,4.70
2022-11-18T10:38:14.910Z,4.80
2022-11-18T10:41:05.393Z,4.80
2022-11-18T10:43:52.478Z,4.80
2022-11-18T10:46:33.766Z,4.80
2022-11-18T10:49:10.501Z,4.90
2022-11-18T10:52:09.178Z,4.90
2022-11-18T10:54:38.241Z,4.90
2022-11-18T10:57:14.368Z,4.80
2022-11-18T10:59:57.663Z,4.80
2022-11-18T11:02:33.650Z,4.70
2022-11-18T11:05:04.949Z,4.70
2022-11-18T11:07:36.448Z,4.70
2022-11-18T11:10:07.292Z,4.70
2022-11-18T11:12:38.646Z,4.70
2022-11-18T11:15:39.707Z,4.80
2022-11-18T11:18:42.187Z,4.80
2022-11-18T11:21:14.812Z,4.90
2022-11-18T11:23:43.732Z,5.00
2022-11-18T11:30:04.888Z,5.00
2022-11-18T11:32:45.289Z,4.90
2022-11-18T11:35:23.119Z,4.90
2022-11-18T11:38:17.473Z,4.90
2022-11-18T11:40:50.944Z,4.80
2022-11-18T11:43:24.253Z,4.80
2022-11-18T11:46:15.629Z,4.80
2022-11-18T11:49:01.337Z,4.80
2022-11-18T11:51:44.176Z,4.80
2022-11-18T11:54:32.928Z,4.80
2022-11-18T11:57:10.928Z,4.70
2022-11-18T11:59:49.144Z,4.70
2022-11-18T12:02:37.001Z,4.70
2022-11-18T12:05:15.521Z,4.60
2022-11-18T12:07:58.813Z,4.60
2022-11-18T12:10:33.768Z,4.70
2022-11-18T12:13:56.849Z,4.60
2022-11-18T12:16:51.777Z,4.70
2022-11-18T12:19:23.354Z,4.80
2022-11-18T12:22:03.918Z,4.70
2022-11-18T12:24:31.572Z,4.70
2022-11-18T12:27:05.580Z,4.70
2022-11-18T12:29:41.143Z,4.70
2022-11-18T12:32:34.835Z,4.70
2022-11-18T12:35:04.484Z,4.70
2022-11-18T12:37:31.459Z,4.70
2022-11-18T12:39:59.512Z,4.70
2022-11-18T12:43:06.282Z,4.70
2022-11-18T12:45:40.116Z,4.70
2022-11-18T12:48:35.708Z,4.60
2022-11-18T12:51:26.488Z,4.60
2022-11-18T12:53:54.820Z,4.60
2022-11-18T12:56:34.527Z,4.60
2022-11-18T12:59:03.648Z,4.50
2022-11-18T13:01:37.239Z,4.50
2022-11-18T13:04:08.019Z,4.50
2022-11-18T13:06:39.100Z,4.40
2022-11-18T13:09:29.433Z,4.40
2022-11-18T13:12:04.790Z,4.40
2022-11-18T13:14:52.660Z,4.30
2022-11-18T13:17:52.346Z,4.30
2022-11-18T13:20:33.493Z,4.30
2022-11-18T13:23:33.442Z,4.20
2022-11-18T13:26:07.581Z,4.20
2022-11-18T13:28:55.649Z,4.20
2022-11-18T13:31:43.067Z,4.20
2022-11-18T13:34:22.183Z,4.20
2022-11-18T13:36:51.170Z,4.10
2022-11-18T13:39:27.247Z,4.10
2022-11-18T13:42:07.092Z,4.00
2022-11-18T13:44:37.728Z,4.00
2022-11-18T13:47:21.021Z,4.00
2022-11-18T13:49:53.792Z,3.90
2022-11-18T13:52:36.956Z,3.90
2022-11-18T13:55:27.003Z,3.90
2022-11-18T13:58:18.254Z,3.80
2022-11-18T14:01:00.790Z,3.80
2022-11-18T14:03:56.467Z,3.80
2022-11-18T14:06:30.908Z,3.80
2022-11-18T14:09:20.484Z,3.70
2022-11-18T14:12:21.783Z,3.70
2022-11-18T14:14:50.519Z,3.70
2022-11-18T14:17:22.816Z,3.70
2022-11-18T14:19:55.131Z,3.70
2022-11-18T14:22:27.757Z,3.60
2022-11-18T14:25:14.701Z,3.60
2022-11-18T14:27:43.575Z,3.50
2022-11-18T14:30:38.464Z,3.50
2022-11-18T14:33:21.337Z,3.40
2022-11-18T14:35:56.873Z,3.40
2022-11-18T14:39:11.297Z,3.40
2022-11-18T14:41:47.156Z,3.30
2022-11-18T14:44:20.504Z,3.30
2022-11-18T14:46:57.203Z,3.30
2022-11-18T14:49:26.812Z,3.20
2022-11-18T14:51:55.418Z,3.20
2022-11-18T14:54:27.639Z,3.20
2022-11-18T14:57:02.596Z,3.20
2022-11-18T14:59:30.380Z,3.10
2022-11-18T15:01:59.591Z,3.10
2022-11-18T15:04:28.002Z,3.10
2022-11-18T15:06:56.161Z,3.10
2022-11-18T15:09:23.971Z,3.10
2022-11-18T15:11:52.267Z,3.10
2022-11-18T15:14:20.900Z,3.10
2022-11-18T15:16:49.607Z,3.00
2022-11-18T15:19:17.283Z,3.10
2022-11-18T15:21:46.436Z,3.10
2022-11-18T15:24:14.898Z,3.00
2022-11-18T15:26:46.616Z,3.00
2022-11-18T15:29:25.151Z,3.00
2022-11-18T15:31:53.528Z,2.90
2022-11-18T15:34:23.033Z,2.90
2022-11-18T15:36:51.579Z,3.00
2022-11-18T15:39:19.987Z,3.00
2022-11-18T15:41:49.132Z,3.00
2022-11-18T15:44:17.387Z,3.00
2022-11-18T15:46:48.145Z,3.00
2022-11-18T15:49:17.954Z,3.00
2022-11-18T15:51:46.633Z,3.00
2022-11-18T15:54:14.746Z,3.00
2022-11-18T15:56:42.393Z,3.00
2022-11-18T15:59:12.538Z,3.00
2022-11-18T16:01:54.245Z,3.10
2022-11-18T16:04:22.323Z,3.10
2022-11-18T16:06:50.293Z,3.10
2022-11-18T16:09:18.361Z,3.10
2022-11-18T16:12:04.332Z,3.10
2022-11-18T16:14:32.082Z,3.10
2022-11-18T16:17:00.607Z,3.10
2022-11-18T16:19:31.324Z,3.00
2022-11-18T16:21:59.836Z,3.10
2022-11-18T16:24:29.797Z,3.10
2022-11-18T16:26:58.139Z,3.10
2022-11-18T16:29:27.605Z,3.10
2022-11-18T16:31:54.987Z,3.10
2022-11-18T16:34:27.571Z,3.10
2022-11-18T16:36:56.669Z,3.10
2022-11-18T16:39:27.245Z,3.10
2022-11-18T16:42:08.434Z,3.10
2022-11-18T16:44:36.771Z,3.10
2022-11-18T16:47:10.536Z,3.10
2022-11-18T16:49:43.021Z,3.10
2022-11-18T16:52:10.650Z,3.10
2022-11-18T16:54:44.175Z,3.20
2022-11-18T16:57:15.603Z,3.20
2022-11-18T16:59:42.508Z,3.20
2022-11-18T17:02:13.697Z,3.20
2022-11-18T17:04:40.728Z,3.20
2022-11-18T17:07:07.599Z,3.20
2022-11-18T17:09:37.287Z,3.20
2022-11-18T17:12:05.988Z,3.20
2022-11-18T17:14:34.158Z,3.10
2022-11-18T17:17:02.512Z,3.20
2022-11-18T17:19:30.893Z,3.10
2022-11-18T17:21:59.431Z,3.10
2022-11-18T17:24:27.116Z,3.10
2022-11-18T17:26:55.419Z,3.10
2022-11-18T17:29:23.473Z,3.10
2022-11-18T17:31:51.026Z,3.10
2022-11-18T17:34:18.407Z,3.10
2022-11-18T17:36:46.130Z,3.20
2022-11-18T17:39:17.664Z,3.10
2022-11-18T17:42:05.662Z,3.10
2022-11-18T17:44:33.228Z,3.10
2022-11-18T17:47:02.872Z,3.10
2022-11-18T17:49:32.667Z,3.10
2022-11-18T17:51:59.539Z,3.10
2022-11-18T17:54:27.212Z,3.10
2022-11-18T17:56:55.619Z,3.10
2022-11-18T17:59:24.045Z,3.10
2022-11-18T18:01:57.277Z,3.10
2022-11-18T18:04:26.577Z,3.10
2022-11-18T18:06:53.886Z,3.10
2022-11-18T18:09:28.462Z,3.20
2022-11-18T18:11:58.619Z,3.20
2022-11-18T18:14:26.196Z,3.20
2022-11-18T18:16:53.191Z,3.20
2022-11-18T18:19:22.425Z,3.30
2022-11-18T18:21:53.195Z,3.40
2022-11-18T18:24:21.381Z,3.40
2022-11-18T18:26:49.078Z,3.30
2022-11-18T18:29:22.281Z,3.30
2022-11-18T18:31:50.696Z,3.40
2022-11-18T18:34:19.453Z,3.40
2022-11-18T18:36:47.864Z,3.40
2022-11-18T18:39:17.555Z,3.30
2022-11-18T18:41:46.031Z,3.40
2022-11-18T18:44:18.672Z,3.40
2022-11-18T18:46:46.598Z,3.40
2022-11-18T18:49:20.286Z,3.40
2022-11-18T18:51:51.055Z,3.40
2022-11-18T18:54:20.237Z,3.40
2022-11-18T18:56:48.763Z,3.40
2022-11-18T18:59:17.322Z,3.40
2022-11-18T19:01:45.709Z,3.30
2022-11-18T19:04:15.823Z,3.30
2022-11-18T19:06:59.438Z,3.30
2022-11-18T19:09:28.440Z,3.30
2022-11-18T19:12:14.681Z,3.30
2022-11-18T19:14:42.449Z,3.30
2022-11-18T19:17:12.145Z,3.20
2022-11-18T19:20:02.250Z,3.20
2022-11-18T19:22:31.795Z,3.20
2022-11-18T19:25:01.399Z,3.20
2022-11-18T19:27:30.440Z,3.20
2022-11-18T19:29:57.308Z,3.20
2022-11-18T19:32:24.244Z,3.20
2022-11-18T19:34:51.100Z,3.20
2022-11-18T19:37:18.622Z,3.20
2022-11-18T19:39:47.355Z,3.20
2022-11-18T19:42:16.123Z,3.20
2022-11-18T19:44:43.727Z,3.10
2022-11-18T19:47:14.052Z,3.20
2022-11-18T19:49:43.070Z,3.10
2022-11-18T19:52:12.539Z,3.10
2022-11-18T19:54:41.315Z,3.10
2022-11-18T19:57:08.505Z,3.10
2022-11-18T19:59:36.882Z,3.10
2022-11-18T20:02:04.546Z,3.10
2022-11-18T20:04:33.135Z,3.10
2022-11-18T20:07:01.782Z,3.10
2022-11-18T20:09:29.599Z,3.10
2022-11-18T20:11:57.264Z,3.10
2022-11-18T20:14:25.491Z,3.10
2022-11-18T20:16:53.428Z,3.10
2022-11-18T20:19:21.180Z,3.20
2022-11-18T20:21:49.792Z,3.10
2022-11-18T20:24:18.765Z,3.10
2022-11-18T20:26:46.795Z,3.20
2022-11-18T20:29:14.496Z,3.10
2022-11-18T20:31:42.857Z,3.10
2022-11-18T20:34:14.480Z,3.10
2022-11-18T20:36:41.655Z,3.20
2022-11-18T20:39:15.340Z,3.20
2022-11-18T20:41:43.366Z,3.20
2022-11-18T20:44:11.068Z,3.20
2022-11-18T20:46:38.596Z,3.20
2022-11-18T20:49:05.497Z,3.20
2022-11-18T20:51:33.996Z,3.20
2022-11-18T20:54:07.665Z,3.20
2022-11-18T20:56:35.312Z,3.20
2022-11-18T20:59:02.916Z,3.20
2022-11-18T21:01:30.597Z,3.10
2022-11-18T21:04:03.568Z,3.20
2022-11-18T21:06:32.980Z,3.20
2022-11-18T21:09:03.035Z,3.20
2022-11-18T21:11:36.291Z,3.20
2022-11-18T21:14:24.600Z,3.20
2022-11-18T21:16:57.874Z,3.20
2022-11-18T21:19:26.376Z,3.20
2022-11-18T21:21:55.049Z,3.20
2022-11-18T21:24:28.811Z,3.20
2022-11-18T21:26:57.798Z,3.20
2022-11-18T21:29:29.376Z,3.20
2022-11-18T21:32:00.532Z,3.20
2022-11-18T21:34:28.819Z,3.20
2022-11-18T21:36:55.749Z,3.20
2022-11-18T21:39:24.256Z,3.20
2022-11-18T21:41:55.669Z,3.20
2022-11-18T21:44:24.754Z,3.20
2022-11-18T21:46:52.398Z,3.20
2022-11-18T21:49:20.102Z,3.20
2022-11-18T21:51:47.937Z,3.20
2022-11-18T21:54:18.304Z,3.20
2022-11-18T21:56:45.413Z,3.20
2022-11-18T21:59:13.181Z,3.20
2022-11-18T22:01:40.738Z,3.20
2022-11-18T22:04:07.595Z,3.20
2022-11-18T22:06:35.319Z,3.20
2022-11-18T22:09:03.950Z,3.20
2022-11-18T22:11:33.364Z,3.20
2022-11-18T22:14:00.918Z,3.20
2022-11-18T22:16:28.463Z,3.20
2022-11-18T22:19:02.414Z,3.20
2022-11-18T22:21:32.320Z,3.20
2022-11-18T22:24:01.589Z,3.20
2022-11-18T22:26:29.361Z,3.20
2022-11-18T22:28:57.973Z,3.10
2022-11-18T22:31:28.158Z,3.10
2022-11-18T22:33:56.428Z,3.10
2022-11-18T22:36:25.136Z,3.10
2022-11-18T22:38:52.845Z,3.10
2022-11-18T22:41:42.903Z,3.10
2022-11-18T22:44:11.863Z,3.10
2022-11-18T22:46:41.579Z,3.10
2022-11-18T22:49:11.064Z,3.10
2022-11-18T22:51:40.088Z,3.10
2022-11-18T22:54:38.261Z,3.10
2022-11-18T22:56:56.212Z,3.10
2022-11-18T22:59:23.812Z,3.10
2022-11-18T23:01:52.073Z,3.10
2022-11-18T23:04:19.817Z,3.10
2022-11-18T23:06:48.879Z,3.10
2022-11-18T23:09:17.945Z,3.10
2022-11-18T23:12:06.211Z,3.10
2022-11-18T23:14:33.320Z,3.10
2022-11-18T23:17:01.031Z,3.10
2022-11-18T23:19:27.893Z,3.10
2022-11-18T23:21:55.465Z,3.10
2022-11-18T23:24:25.429Z,3.10
2022-11-18T23:26:52.976Z,3.00
2022-11-18T23:29:21.144Z,3.10
2022-11-18T23:31:49.258Z,3.10
2022-11-18T23:34:17.191Z,3.10
2022-11-18T23:36:44.776Z,3.10
2022-11-18T23:39:13.479Z,3.10
2022-11-18T23:41:41.031Z,3.10
2022-11-18T23:44:07.914Z,3.10
2022-11-18T23:46:36.056Z,3.00
2022-11-18T23:49:09.091Z,3.10
2022-11-18T23:51:37.414Z,3.10
2022-11-18T23:54:05.047Z,3.00
2022-11-18T23:56:37.835Z,3.00
2022-11-18T23:59:06.718Z,3.00
